sensor_id;sensor_type;location;lat;lon;timestamp;pressure;altitude;pressure_sealevel;temperature;humidity
4326;BME280;58429;49.826;10.880;2023-07-29T00:00:01;98218;;;20.28;59.16
4326;BME280;58429;49.826;10.880;2023-07-29T00:01:01;98211;;;20.28;59.16
4326;BME280;58429;49.826;10.880;2023-07-29T00:02:01;98219;;;20.28;59.16
4326;BME280;58429;49.826;10.880;2023-07-29T00:03:01;98211;;;20.28;59.16
4326;BME280;58429;49.826;10.880;2023-07-29T00:04:01;98208;;;20.28;59.16
4326;BME280;58429;49.826;10.880;2023-07-29T00:05:01;98205;;;20.28;59.16
4326;BME280;58429;49.826;10.880;2023-07-29T00:06:01;98207;;;20.28;59.16
4326;BME280;58429;49.826;10.880;2023-07-29T00:07:01;98212;;;20.28;59.16
4326;BME280;58429;49.826;10.880;2023-07-29T00:08:01;98211;;;20.28;59.16
4326;BME280;58429;49.826;10.880;2023-07-29T00:09:01;98207;;;20.28;59.16
4326;BME280;58429;49.826;10.880;2023-07-29T00:10:01;98205;;;20.28;59.16
4326;BME280;58429;49.826;10.880;2023-07-29T00:11:01;98206;;;20.28;59.16
4326;BME280;58429;49.826;10.880;2023-07-29T00:12:01;98205;;;20.28;59.16
4326;BME280;58429;49.826;10.880;2023-07-29T00:13:01;98198;;;20.28;59.16
4326;BME280;58429;49.826;10.880;2023-07-29T00:14:01;98204;;;20.28;59.16
4326;BME280;58429;49.826;10.880;2023-07-29T00:15:01;98203;;;20.28;59.16
4326;BME280;58429;49.826;10.880;2023-07-29T00:16:01;98203;;;20.28;59.16
4326;BME280;58429;49.826;10.880;2023-07-29T00:17:01;98203;;;20.28;59.16
4326;BME280;58429;49.826;10.880;2023-07-29T00:18:01;98207;;;20.28;59.16
4326;BME280;58429;49.826;10.880;2023-07-29T00:19:02;98207;;;20.28;59.16
4326;BME280;58429;49.826;10.880;2023-07-29T00:20:01;98206;;;20.28;59.16
4326;BME280;58429;49.826;10.880;2023-07-29T00:21:01;98199;;;20.28;59.16
4326;BME280;58429;49.826;10.880;2023-07-29T00:22:01;98204;;;20.28;59.16
4326;BME280;58429;49.826;10.880;2023-07-29T00:23:01;98205;;;20.28;59.16
4326;BME280;58429;49.826;10.880;2023-07-29T00:24:01;98203;;;20.28;59.16
4326;BME280;58429;49.826;10.880;2023-07-29T00:25:01;98205;;;20.28;59.16
4326;BME280;58429;49.826;10.880;2023-07-29T00:26:01;98202;;;20.28;59.16
4326;BME280;58429;49.826;10.880;2023-07-29T00:27:01;98199;;;20.28;59.16
4326;BME280;58429;49.826;10.880;2023-07-29T00:28:01;98201;;;20.28;59.16
4326;BME280;58429;49.826;10.880;2023-07-29T00:29:01;98194;;;20.28;59.16
4326;BME280;58429;49.826;10.880;2023-07-29T00:30:01;98202;;;20.28;59.16
4326;BME280;58429;49.826;10.880;2023-07-29T00:31:01;98198;;;20.28;59.16
4326;BME280;58429;49.826;10.880;2023-07-29T00:32:01;98199;;;20.28;59.16
4326;BME280;58429;49.826;10.880;2023-07-29T00:33:01;98196;;;20.28;59.16
4326;BME280;58429;49.826;10.880;2023-07-29T00:34:01;98193;;;20.28;59.16
4326;BME280;58429;49.826;10.880;2023-07-29T00:35:01;98195;;;20.28;59.16
4326;BME280;58429;49.826;10.880;2023-07-29T00:36:01;98194;;;20.28;59.16
4326;BME280;58429;49.826;10.880;2023-07-29T00:37:01;98194;;;20.28;59.16
4326;BME280;58429;49.826;10.880;2023-07-29T00:38:01;98193;;;20.28;59.16
4326;BME280;58429;49.826;10.880;2023-07-29T00:39:01;98192;;;20.28;59.16
4326;BME280;58429;49.826;10.880;2023-07-29T00:40:01;98197;;;20.28;59.16
4326;BME280;58429;49.826;10.880;2023-07-29T00:41:01;98201;;;20.28;59.16
4326;BME280;58429;49.826;10.880;2023-07-29T00:42:01;98198;;;20.28;59.16
4326;BME280;58429;49.826;10.880;2023-07-29T00:43:01;98200;;;20.28;59.16
4326;BME280;58429;49.826;10.880;2023-07-29T00:44:01;98204;;;20.28;59.16
4326;BME280;58429;49.826;10.880;2023-07-29T00:45:01;98203;;;20.28;59.16
4326;BME280;58429;49.826;10.880;2023-07-29T00:46:01;98203;;;20.28;59.16
4326;BME280;58429;49.826;10.880;2023-07-29T00:47:02;98204;;;20.28;59.16
4326;BME280;58429;49.826;10.880;2023-07-29T00:48:02;98206;;;20.28;59.16
4326;BME280;58429;49.826;10.880;2023-07-29T00:49:01;98210;;;20.28;59.16
4326;BME280;58429;49.826;10.880;2023-07-29T00:50:02;98201;;;20.28;59.16
4326;BME280;58429;49.826;10.880;2023-07-29T00:51:01;98203;;;20.28;59.16
4326;BME280;58429;49.826;10.880;2023-07-29T00:52:01;98200;;;20.28;59.16
4326;BME280;58429;49.826;10.880;2023-07-29T00:53:01;98201;;;20.28;59.16
4326;BME280;58429;49.826;10.880;2023-07-29T00:54:01;98201;;;20.28;59.16
4326;BME280;58429;49.826;10.880;2023-07-29T00:55:01;98198;;;20.28;59.16
4326;BME280;58429;49.826;10.880;2023-07-29T00:56:01;98202;;;20.28;59.16
4326;BME280;58429;49.826;10.880;2023-07-29T00:57:01;98196;;;20.28;59.16
4326;BME280;58429;49.826;10.880;2023-07-29T00:58:06;98193;;;20.28;59.16
4326;BME280;58429;49.826;10.880;2023-07-29T00:59:01;98195;;;20.28;59.16
4326;BME280;58429;49.826;10.880;2023-07-29T01:00:01;98195;;;20.28;59.16
4326;BME280;58429;49.826;10.880;2023-07-29T01:01:01;98193;;;20.28;59.16
4326;BME280;58429;49.826;10.880;2023-07-29T01:02:02;98190;;;20.28;59.16
4326;BME280;58429;49.826;10.880;2023-07-29T01:03:01;98197;;;20.28;59.16
4326;BME280;58429;49.826;10.880;2023-07-29T01:04:01;98199;;;20.28;59.16
4326;BME280;58429;49.826;10.880;2023-07-29T01:05:01;98202;;;20.28;59.16
4326;BME280;58429;49.826;10.880;2023-07-29T01:06:05;98199;;;20.28;59.16
4326;BME280;58429;49.826;10.880;2023-07-29T01:07:03;98199;;;20.28;59.16
4326;BME280;58429;49.826;10.880;2023-07-29T01:08:03;98198;;;20.28;59.16
4326;BME280;58429;49.826;10.880;2023-07-29T01:09:02;98199;;;20.28;59.16
4326;BME280;58429;49.826;10.880;2023-07-29T01:10:02;98198;;;20.28;59.16
4326;BME280;58429;49.826;10.880;2023-07-29T01:11:03;98200;;;20.28;59.16
4326;BME280;58429;49.826;10.880;2023-07-29T01:12:04;98195;;;20.28;59.16
4326;BME280;58429;49.826;10.880;2023-07-29T01:13:02;98197;;;20.28;59.16
4326;BME280;58429;49.826;10.880;2023-07-29T01:14:02;98199;;;20.28;59.16
4326;BME280;58429;49.826;10.880;2023-07-29T01:15:04;98193;;;20.28;59.16
4326;BME280;58429;49.826;10.880;2023-07-29T01:16:02;98192;;;20.28;59.16
4326;BME280;58429;49.826;10.880;2023-07-29T01:17:03;98192;;;20.28;59.16
4326;BME280;58429;49.826;10.880;2023-07-29T01:18:03;98195;;;20.28;59.16
4326;BME280;58429;49.826;10.880;2023-07-29T01:19:03;98200;;;20.28;59.16
4326;BME280;58429;49.826;10.880;2023-07-29T01:20:02;98195;;;20.28;59.16
4326;BME280;58429;49.826;10.880;2023-07-29T01:21:03;98200;;;20.28;59.16
4326;BME280;58429;49.826;10.880;2023-07-29T01:22:01;98196;;;20.28;59.16
4326;BME280;58429;49.826;10.880;2023-07-29T01:23:01;98200;;;20.28;59.16
4326;BME280;58429;49.826;10.880;2023-07-29T01:24:02;98204;;;20.28;59.16
4326;BME280;58429;49.826;10.880;2023-07-29T01:25:01;98196;;;20.28;59.16
4326;BME280;58429;49.826;10.880;2023-07-29T01:26:02;98201;;;20.28;59.16
4326;BME280;58429;49.826;10.880;2023-07-29T01:27:01;98197;;;20.28;59.16
4326;BME280;58429;49.826;10.880;2023-07-29T01:28:01;98195;;;20.28;59.16
4326;BME280;58429;49.826;10.880;2023-07-29T01:29:01;98197;;;20.28;59.16
4326;BME280;58429;49.826;10.880;2023-07-29T01:30:01;98196;;;20.28;59.16
4326;BME280;58429;49.826;10.880;2023-07-29T01:31:02;98189;;;20.28;59.16
4326;BME280;58429;49.826;10.880;2023-07-29T01:32:03;98197;;;20.28;59.16
4326;BME280;58429;49.826;10.880;2023-07-29T01:33:03;98193;;;20.28;59.16
4326;BME280;58429;49.826;10.880;2023-07-29T01:34:03;98194;;;20.28;59.16
4326;BME280;58429;49.826;10.880;2023-07-29T01:35:03;98199;;;20.28;59.16
4326;BME280;58429;49.826;10.880;2023-07-29T01:36:02;98199;;;20.28;59.16
4326;BME280;58429;49.826;10.880;2023-07-29T01:37:02;98201;;;20.28;59.16
4326;BME280;58429;49.826;10.880;2023-07-29T01:38:04;98195;;;20.28;59.16
4326;BME280;58429;49.826;10.880;2023-07-29T01:39:02;98195;;;20.28;59.16
4326;BME280;58429;49.826;10.880;2023-07-29T01:40:02;98197;;;20.28;59.16
4326;BME280;58429;49.826;10.880;2023-07-29T01:41:02;98189;;;20.28;59.16
4326;BME280;58429;49.826;10.880;2023-07-29T01:42:02;98193;;;20.28;59.16
4326;BME280;58429;49.826;10.880;2023-07-29T01:43:01;98201;;;20.28;59.16
4326;BME280;58429;49.826;10.880;2023-07-29T01:44:01;98196;;;20.28;59.16
4326;BME280;58429;49.826;10.880;2023-07-29T01:45:01;98199;;;20.28;59.16
4326;BME280;58429;49.826;10.880;2023-07-29T01:46:01;98199;;;20.28;59.16
4326;BME280;58429;49.826;10.880;2023-07-29T01:47:01;98202;;;20.28;59.16
4326;BME280;58429;49.826;10.880;2023-07-29T01:48:01;98208;;;20.28;59.16
4326;BME280;58429;49.826;10.880;2023-07-29T01:49:01;98200;;;20.28;59.16
4326;BME280;58429;49.826;10.880;2023-07-29T01:50:01;98204;;;20.28;59.16
4326;BME280;58429;49.826;10.880;2023-07-29T01:51:01;98201;;;20.28;59.16
4326;BME280;58429;49.826;10.880;2023-07-29T01:52:01;98199;;;20.28;59.16
4326;BME280;58429;49.826;10.880;2023-07-29T01:53:01;98194;;;20.28;59.16
4326;BME280;58429;49.826;10.880;2023-07-29T01:54:01;98197;;;20.28;59.16
4326;BME280;58429;49.826;10.880;2023-07-29T01:55:01;98196;;;20.28;59.16
4326;BME280;58429;49.826;10.880;2023-07-29T01:56:01;98194;;;20.28;59.16
4326;BME280;58429;49.826;10.880;2023-07-29T01:57:02;98191;;;20.28;59.16
4326;BME280;58429;49.826;10.880;2023-07-29T01:58:01;98195;;;20.28;59.16
4326;BME280;58429;49.826;10.880;2023-07-29T01:59:01;98196;;;20.28;59.16
4326;BME280;58429;49.826;10.880;2023-07-29T02:00:02;98202;;;20.28;59.16
4326;BME280;58429;49.826;10.880;2023-07-29T02:01:01;98196;;;20.28;59.16
4326;BME280;58429;49.826;10.880;2023-07-29T02:02:01;98199;;;20.28;59.16
4326;BME280;58429;49.826;10.880;2023-07-29T02:03:01;98194;;;20.28;59.16
4326;BME280;58429;49.826;10.880;2023-07-29T02:04:01;98196;;;20.28;59.16
4326;BME280;58429;49.826;10.880;2023-07-29T02:05:01;98195;;;20.28;59.16
4326;BME280;58429;49.826;10.880;2023-07-29T02:06:01;98194;;;20.28;59.16
4326;BME280;58429;49.826;10.880;2023-07-29T02:07:01;98193;;;20.28;59.16
4326;BME280;58429;49.826;10.880;2023-07-29T02:08:01;98196;;;20.28;59.16
4326;BME280;58429;49.826;10.880;2023-07-29T02:09:01;98193;;;20.28;59.16
4326;BME280;58429;49.826;10.880;2023-07-29T02:10:01;98195;;;20.28;59.16
4326;BME280;58429;49.826;10.880;2023-07-29T02:11:01;98200;;;20.28;59.16
4326;BME280;58429;49.826;10.880;2023-07-29T02:12:02;98195;;;20.28;59.16
4326;BME280;58429;49.826;10.880;2023-07-29T02:13:02;98195;;;20.28;59.16
4326;BME280;58429;49.826;10.880;2023-07-29T02:14:01;98187;;;20.28;59.16
4326;BME280;58429;49.826;10.880;2023-07-29T02:15:02;98191;;;20.28;59.16
4326;BME280;58429;49.826;10.880;2023-07-29T02:16:01;98188;;;20.28;59.16
4326;BME280;58429;49.826;10.880;2023-07-29T02:17:03;98190;;;20.28;59.16
4326;BME280;58429;49.826;10.880;2023-07-29T02:18:03;98189;;;20.28;59.16
4326;BME280;58429;49.826;10.880;2023-07-29T02:19:05;98191;;;20.28;59.16
4326;BME280;58429;49.826;10.880;2023-07-29T02:20:05;98182;;;20.28;59.16
4326;BME280;58429;49.826;10.880;2023-07-29T02:57:02;98135;;;20.28;59.16
4326;BME280;58429;49.826;10.880;2023-07-29T02:58:01;98146;;;20.28;59.16
4326;BME280;58429;49.826;10.880;2023-07-29T02:59:01;98134;;;20.28;59.16
4326;BME280;58429;49.826;10.880;2023-07-29T03:00:02;98139;;;20.28;59.16
4326;BME280;58429;49.826;10.880;2023-07-29T03:01:02;98132;;;20.28;59.16
4326;BME280;58429;49.826;10.880;2023-07-29T03:02:02;98125;;;20.28;59.16
4326;BME280;58429;49.826;10.880;2023-07-29T03:03:01;98127;;;20.28;59.16
4326;BME280;58429;49.826;10.880;2023-07-29T03:04:01;98126;;;20.28;59.16
4326;BME280;58429;49.826;10.880;2023-07-29T03:05:01;98131;;;20.28;59.16
4326;BME280;58429;49.826;10.880;2023-07-29T03:06:02;98132;;;20.28;59.16
4326;BME280;58429;49.826;10.880;2023-07-29T03:07:02;98131;;;20.28;59.16
4326;BME280;58429;49.826;10.880;2023-07-29T03:08:01;98148;;;20.28;59.16
4326;BME280;58429;49.826;10.880;2023-07-29T03:09:01;98141;;;20.28;59.16
4326;BME280;58429;49.826;10.880;2023-07-29T03:10:02;98143;;;20.28;59.16
4326;BME280;58429;49.826;10.880;2023-07-29T03:11:04;98145;;;20.28;59.16
4326;BME280;58429;49.826;10.880;2023-07-29T03:12:01;98146;;;20.28;59.16
4326;BME280;58429;49.826;10.880;2023-07-29T03:13:02;98143;;;20.28;59.16
4326;BME280;58429;49.826;10.880;2023-07-29T03:14:01;98151;;;20.28;59.16
4326;BME280;58429;49.826;10.880;2023-07-29T03:15:03;98152;;;20.28;59.16
4326;BME280;58429;49.826;10.880;2023-07-29T03:16:05;98155;;;20.28;59.16
4326;BME280;58429;49.826;10.880;2023-07-29T03:17:02;98153;;;20.28;59.16
4326;BME280;58429;49.826;10.880;2023-07-29T03:18:01;98152;;;20.28;59.16
4326;BME280;58429;49.826;10.880;2023-07-29T03:19:01;98157;;;20.28;59.16
4326;BME280;58429;49.826;10.880;2023-07-29T03:20:01;98155;;;20.28;59.16
4326;BME280;58429;49.826;10.880;2023-07-29T03:21:02;98148;;;20.28;59.16
4326;BME280;58429;49.826;10.880;2023-07-29T03:22:02;98150;;;20.28;59.16
4326;BME280;58429;49.826;10.880;2023-07-29T03:23:02;98157;;;20.28;59.16
4326;BME280;58429;49.826;10.880;2023-07-29T03:24:01;98157;;;20.28;59.16
4326;BME280;58429;49.826;10.880;2023-07-29T03:25:01;98151;;;20.28;59.16
4326;BME280;58429;49.826;10.880;2023-07-29T03:26:02;98154;;;20.28;59.16
4326;BME280;58429;49.826;10.880;2023-07-29T03:27:02;98144;;;20.28;59.16
4326;BME280;58429;49.826;10.880;2023-07-29T03:28:01;98144;;;20.28;59.16
4326;BME280;58429;49.826;10.880;2023-07-29T03:29:02;98142;;;20.28;59.16
4326;BME280;58429;49.826;10.880;2023-07-29T03:30:02;98139;;;20.28;59.16
4326;BME280;58429;49.826;10.880;2023-07-29T03:31:02;98135;;;20.28;59.16
4326;BME280;58429;49.826;10.880;2023-07-29T03:32:01;98135;;;20.28;59.16
4326;BME280;58429;49.826;10.880;2023-07-29T03:33:01;98134;;;20.28;59.16
4326;BME280;58429;49.826;10.880;2023-07-29T03:34:01;98132;;;20.28;59.16
4326;BME280;58429;49.826;10.880;2023-07-29T03:35:02;98128;;;20.28;59.16
4326;BME280;58429;49.826;10.880;2023-07-29T03:36:02;98131;;;20.28;59.16
4326;BME280;58429;49.826;10.880;2023-07-29T03:37:02;98130;;;20.28;59.16
4326;BME280;58429;49.826;10.880;2023-07-29T03:38:02;98131;;;20.28;59.16
4326;BME280;58429;49.826;10.880;2023-07-29T03:39:02;98125;;;20.28;59.16
4326;BME280;58429;49.826;10.880;2023-07-29T03:40:02;98130;;;20.28;59.16
4326;BME280;58429;49.826;10.880;2023-07-29T03:41:01;98132;;;20.28;59.16
4326;BME280;58429;49.826;10.880;2023-07-29T03:42:02;98133;;;20.28;59.16
4326;BME280;58429;49.826;10.880;2023-07-29T03:43:01;98135;;;20.28;59.16
4326;BME280;58429;49.826;10.880;2023-07-29T03:44:01;98130;;;20.28;59.16
4326;BME280;58429;49.826;10.880;2023-07-29T03:45:02;98126;;;20.28;59.16
4326;BME280;58429;49.826;10.880;2023-07-29T03:46:02;98132;;;20.28;59.16
4326;BME280;58429;49.826;10.880;2023-07-29T03:47:02;98126;;;20.28;59.16
4326;BME280;58429;49.826;10.880;2023-07-29T03:48:02;98130;;;20.28;59.16
4326;BME280;58429;49.826;10.880;2023-07-29T03:49:02;98127;;;20.28;59.16
4326;BME280;58429;49.826;10.880;2023-07-29T03:50:01;98128;;;20.28;59.16
4326;BME280;58429;49.826;10.880;2023-07-29T03:51:02;98120;;;20.28;59.16
4326;BME280;58429;49.826;10.880;2023-07-29T03:52:02;98121;;;20.28;59.16
4326;BME280;58429;49.826;10.880;2023-07-29T03:53:01;98114;;;20.28;59.16
4326;BME280;58429;49.826;10.880;2023-07-29T03:54:02;98117;;;20.28;59.16
4326;BME280;58429;49.826;10.880;2023-07-29T03:55:02;98115;;;20.28;59.16
4326;BME280;58429;49.826;10.880;2023-07-29T03:56:01;98111;;;20.28;59.16
4326;BME280;58429;49.826;10.880;2023-07-29T03:57:02;98117;;;20.28;59.16
4326;BME280;58429;49.826;10.880;2023-07-29T03:58:02;98119;;;20.28;59.16
4326;BME280;58429;49.826;10.880;2023-07-29T03:59:02;98120;;;20.28;59.16
4326;BME280;58429;49.826;10.880;2023-07-29T04:00:02;98116;;;20.28;59.16
4326;BME280;58429;49.826;10.880;2023-07-29T04:01:02;98124;;;20.28;59.16
4326;BME280;58429;49.826;10.880;2023-07-29T04:02:02;98121;;;20.28;59.16
4326;BME280;58429;49.826;10.880;2023-07-29T04:03:02;98111;;;20.28;59.16
4326;BME280;58429;49.826;10.880;2023-07-29T04:04:02;98122;;;20.28;59.16
4326;BME280;58429;49.826;10.880;2023-07-29T04:05:02;98122;;;20.28;59.16
4326;BME280;58429;49.826;10.880;2023-07-29T04:06:01;98128;;;20.28;59.16
4326;BME280;58429;49.826;10.880;2023-07-29T04:07:02;98120;;;20.28;59.16
4326;BME280;58429;49.826;10.880;2023-07-29T04:08:02;98119;;;20.28;59.16
4326;BME280;58429;49.826;10.880;2023-07-29T04:09:02;98122;;;20.28;59.16
4326;BME280;58429;49.826;10.880;2023-07-29T04:10:02;98114;;;20.28;59.16
4326;BME280;58429;49.826;10.880;2023-07-29T04:11:02;98111;;;20.28;59.16
4326;BME280;58429;49.826;10.880;2023-07-29T04:12:02;98109;;;20.28;59.16
4326;BME280;58429;49.826;10.880;2023-07-29T04:13:02;98111;;;20.28;59.16
4326;BME280;58429;49.826;10.880;2023-07-29T04:14:02;98108;;;20.28;59.16
4326;BME280;58429;49.826;10.880;2023-07-29T04:15:02;98106;;;20.28;59.16
4326;BME280;58429;49.826;10.880;2023-07-29T04:16:02;98107;;;20.28;59.16
4326;BME280;58429;49.826;10.880;2023-07-29T04:17:02;98111;;;20.28;59.16
4326;BME280;58429;49.826;10.880;2023-07-29T04:18:02;98108;;;20.28;59.16
4326;BME280;58429;49.826;10.880;2023-07-29T04:19:02;98106;;;20.28;59.16
4326;BME280;58429;49.826;10.880;2023-07-29T04:20:02;98112;;;20.28;59.16
4326;BME280;58429;49.826;10.880;2023-07-29T04:21:02;98120;;;20.28;59.16
4326;BME280;58429;49.826;10.880;2023-07-29T04:22:02;98121;;;20.28;59.16
4326;BME280;58429;49.826;10.880;2023-07-29T04:23:02;98119;;;20.28;59.16
4326;BME280;58429;49.826;10.880;2023-07-29T04:24:02;98123;;;20.28;59.16
4326;BME280;58429;49.826;10.880;2023-07-29T04:25:02;98119;;;20.28;59.16
4326;BME280;58429;49.826;10.880;2023-07-29T04:26:02;98123;;;20.28;59.16
4326;BME280;58429;49.826;10.880;2023-07-29T04:27:02;98119;;;20.28;59.16
4326;BME280;58429;49.826;10.880;2023-07-29T04:28:02;98121;;;20.28;59.16
4326;BME280;58429;49.826;10.880;2023-07-29T04:29:02;98115;;;20.28;59.16
4326;BME280;58429;49.826;10.880;2023-07-29T04:30:02;98126;;;20.28;59.16
4326;BME280;58429;49.826;10.880;2023-07-29T04:31:02;98131;;;20.28;59.16
4326;BME280;58429;49.826;10.880;2023-07-29T04:32:02;98133;;;20.28;59.16
4326;BME280;58429;49.826;10.880;2023-07-29T04:33:02;98140;;;20.28;59.16
4326;BME280;58429;49.826;10.880;2023-07-29T04:34:02;98141;;;20.28;59.16
4326;BME280;58429;49.826;10.880;2023-07-29T04:35:02;98148;;;20.28;59.16
4326;BME280;58429;49.826;10.880;2023-07-29T04:36:02;98146;;;20.28;59.16
4326;BME280;58429;49.826;10.880;2023-07-29T04:37:02;98150;;;20.28;59.16
4326;BME280;58429;49.826;10.880;2023-07-29T04:38:02;98157;;;20.28;59.16
4326;BME280;58429;49.826;10.880;2023-07-29T04:39:02;98163;;;20.28;59.16
4326;BME280;58429;49.826;10.880;2023-07-29T04:40:02;98149;;;20.28;59.16
4326;BME280;58429;49.826;10.880;2023-07-29T04:41:02;98150;;;20.28;59.16
4326;BME280;58429;49.826;10.880;2023-07-29T04:42:02;98143;;;20.28;59.16
4326;BME280;58429;49.826;10.880;2023-07-29T04:43:02;98136;;;20.28;59.16
4326;BME280;58429;49.826;10.880;2023-07-29T04:44:02;98132;;;20.28;59.16
4326;BME280;58429;49.826;10.880;2023-07-29T04:45:02;98138;;;20.28;59.16
4326;BME280;58429;49.826;10.880;2023-07-29T04:46:02;98136;;;20.28;59.16
4326;BME280;58429;49.826;10.880;2023-07-29T04:47:02;98135;;;20.28;59.16
4326;BME280;58429;49.826;10.880;2023-07-29T04:48:02;98144;;;20.28;59.16
4326;BME280;58429;49.826;10.880;2023-07-29T04:49:02;98146;;;20.28;59.16
4326;BME280;58429;49.826;10.880;2023-07-29T04:50:02;98139;;;20.28;59.16
4326;BME280;58429;49.826;10.880;2023-07-29T04:51:02;98149;;;20.28;59.16
4326;BME280;58429;49.826;10.880;2023-07-29T04:52:02;98144;;;20.28;59.16
4326;BME280;58429;49.826;10.880;2023-07-29T04:53:02;98143;;;20.28;59.16
4326;BME280;58429;49.826;10.880;2023-07-29T04:54:02;98135;;;20.28;59.16
4326;BME280;58429;49.826;10.880;2023-07-29T04:55:02;98126;;;20.28;59.16
4326;BME280;58429;49.826;10.880;2023-07-29T04:56:02;98126;;;20.28;59.16
4326;BME280;58429;49.826;10.880;2023-07-29T04:57:02;98130;;;20.28;59.16
4326;BME280;58429;49.826;10.880;2023-07-29T04:58:02;98123;;;20.28;59.16
4326;BME280;58429;49.826;10.880;2023-07-29T04:59:02;98127;;;20.28;59.16
4326;BME280;58429;49.826;10.880;2023-07-29T05:00:02;98114;;;20.28;59.16
4326;BME280;58429;49.826;10.880;2023-07-29T05:01:02;98122;;;20.28;59.16
4326;BME280;58429;49.826;10.880;2023-07-29T05:02:02;98116;;;20.28;59.16
4326;BME280;58429;49.826;10.880;2023-07-29T05:03:02;98113;;;20.28;59.16
4326;BME280;58429;49.826;10.880;2023-07-29T05:04:02;98105;;;20.28;59.16
4326;BME280;58429;49.826;10.880;2023-07-29T05:05:02;98105;;;20.28;59.16
4326;BME280;58429;49.826;10.880;2023-07-29T05:06:02;98111;;;20.28;59.16
4326;BME280;58429;49.826;10.880;2023-07-29T05:07:02;98109;;;20.28;59.16
4326;BME280;58429;49.826;10.880;2023-07-29T05:08:02;98102;;;20.28;59.16
4326;BME280;58429;49.826;10.880;2023-07-29T05:09:12;98105;;;20.28;59.16
4326;BME280;58429;49.826;10.880;2023-07-29T05:10:02;98101;;;20.28;59.16
4326;BME280;58429;49.826;10.880;2023-07-29T05:11:02;98099;;;20.28;59.16
4326;BME280;58429;49.826;10.880;2023-07-29T05:12:02;98104;;;20.28;59.16
4326;BME280;58429;49.826;10.880;2023-07-29T05:13:02;98098;;;20.28;59.16
4326;BME280;58429;49.826;10.880;2023-07-29T05:14:02;98094;;;20.28;59.16
4326;BME280;58429;49.826;10.880;2023-07-29T05:15:02;98083;;;20.28;59.16
4326;BME280;58429;49.826;10.880;2023-07-29T05:16:02;98078;;;20.28;59.16
4326;BME280;58429;49.826;10.880;2023-07-29T05:17:02;98068;;;20.28;59.16
4326;BME280;58429;49.826;10.880;2023-07-29T05:18:02;98066;;;20.28;59.16
4326;BME280;58429;49.826;10.880;2023-07-29T05:19:02;98065;;;20.28;59.16
4326;BME280;58429;49.826;10.880;2023-07-29T05:20:02;98066;;;20.28;59.16
4326;BME280;58429;49.826;10.880;2023-07-29T05:21:02;98064;;;20.28;59.16
4326;BME280;58429;49.826;10.880;2023-07-29T05:22:02;98068;;;20.28;59.16
4326;BME280;58429;49.826;10.880;2023-07-29T05:23:02;98065;;;20.28;59.16
4326;BME280;58429;49.826;10.880;2023-07-29T05:24:02;98064;;;20.28;59.16
4326;BME280;58429;49.826;10.880;2023-07-29T05:25:02;98071;;;20.28;59.16
4326;BME280;58429;49.826;10.880;2023-07-29T05:26:02;98068;;;20.28;59.16
4326;BME280;58429;49.826;10.880;2023-07-29T05:27:02;98069;;;20.28;59.16
4326;BME280;58429;49.826;10.880;2023-07-29T05:28:03;98069;;;20.28;59.16
4326;BME280;58429;49.826;10.880;2023-07-29T05:29:02;98075;;;20.28;59.16
4326;BME280;58429;49.826;10.880;2023-07-29T05:30:02;98075;;;20.28;59.16
4326;BME280;58429;49.826;10.880;2023-07-29T05:31:02;98083;;;20.28;59.16
4326;BME280;58429;49.826;10.880;2023-07-29T05:32:02;98077;;;20.28;59.16
4326;BME280;58429;49.826;10.880;2023-07-29T05:33:02;98074;;;20.28;59.16
4326;BME280;58429;49.826;10.880;2023-07-29T05:34:02;98074;;;20.28;59.16
4326;BME280;58429;49.826;10.880;2023-07-29T05:35:02;98078;;;20.28;59.16
4326;BME280;58429;49.826;10.880;2023-07-29T05:36:02;98082;;;20.28;59.16
4326;BME280;58429;49.826;10.880;2023-07-29T05:37:02;98088;;;20.28;59.16
4326;BME280;58429;49.826;10.880;2023-07-29T05:38:02;98091;;;20.28;59.16
4326;BME280;58429;49.826;10.880;2023-07-29T05:39:02;98081;;;20.28;59.16
4326;BME280;58429;49.826;10.880;2023-07-29T05:40:02;98078;;;20.28;59.16
4326;BME280;58429;49.826;10.880;2023-07-29T05:41:02;98079;;;20.28;59.16
4326;BME280;58429;49.826;10.880;2023-07-29T05:42:02;98082;;;20.28;59.16
4326;BME280;58429;49.826;10.880;2023-07-29T05:43:02;98083;;;20.28;59.16
4326;BME280;58429;49.826;10.880;2023-07-29T05:44:02;98084;;;20.28;59.16
4326;BME280;58429;49.826;10.880;2023-07-29T05:45:02;98091;;;20.28;59.16
4326;BME280;58429;49.826;10.880;2023-07-29T05:46:02;98086;;;20.28;59.16
4326;BME280;58429;49.826;10.880;2023-07-29T05:47:02;98090;;;20.28;59.16
4326;BME280;58429;49.826;10.880;2023-07-29T05:48:02;98091;;;20.28;59.16
4326;BME280;58429;49.826;10.880;2023-07-29T05:49:02;98086;;;20.28;59.16
4326;BME280;58429;49.826;10.880;2023-07-29T05:50:02;98086;;;20.28;59.16
4326;BME280;58429;49.826;10.880;2023-07-29T05:51:02;98087;;;20.28;59.16
4326;BME280;58429;49.826;10.880;2023-07-29T05:52:02;98094;;;20.28;59.16
4326;BME280;58429;49.826;10.880;2023-07-29T05:53:02;98094;;;20.28;59.16
4326;BME280;58429;49.826;10.880;2023-07-29T05:54:02;98095;;;20.28;59.16
4326;BME280;58429;49.826;10.880;2023-07-29T05:55:02;98091;;;20.28;59.16
4326;BME280;58429;49.826;10.880;2023-07-29T05:56:02;98091;;;20.28;59.16
4326;BME280;58429;49.826;10.880;2023-07-29T05:57:02;98093;;;20.28;59.16
4326;BME280;58429;49.826;10.880;2023-07-29T05:58:02;98086;;;20.28;59.16
4326;BME280;58429;49.826;10.880;2023-07-29T05:59:02;98092;;;20.28;59.16
4326;BME280;58429;49.826;10.880;2023-07-29T06:00:03;98087;;;20.28;59.16
4326;BME280;58429;49.826;10.880;2023-07-29T06:01:02;98082;;;20.28;59.16
4326;BME280;58429;49.826;10.880;2023-07-29T06:02:02;98086;;;20.28;59.16
4326;BME280;58429;49.826;10.880;2023-07-29T06:03:02;98094;;;20.28;59.16
4326;BME280;58429;49.826;10.880;2023-07-29T06:04:02;98093;;;20.28;59.16
4326;BME280;58429;49.826;10.880;2023-07-29T06:05:02;98095;;;20.28;59.16
4326;BME280;58429;49.826;10.880;2023-07-29T06:06:02;98093;;;20.28;59.16